createdAt,value
2017-05-13T00:00:26.211Z,39.59
2017-05-13T00:01:26.217Z,39.69
2017-05-13T00:02:26.227Z,39.69
2017-05-13T00:03:26.235Z,39.59
2017-05-13T00:04:26.242Z,39.59
2017-05-13T00:05:25.938Z,39.59
2017-05-13T00:06:25.943Z,39.69
2017-05-13T00:07:26.264Z,39.78
2017-05-13T00:08:26.268Z,39.78
2017-05-13T00:09:25.967Z,39.78
2017-05-13T00:10:26.283Z,39.59
2017-05-13T00:11:25.980Z,39.59
2017-05-13T00:12:25.987Z,39.69
2017-05-13T00:13:26.306Z,39.59
2017-05-13T00:14:26.313Z,39.78
2017-05-13T00:15:26.317Z,39.59
2017-05-13T00:16:26.324Z,39.69
2017-05-13T00:17:26.023Z,39.59
2017-05-13T00:18:26.342Z,39.69
2017-05-13T00:19:26.347Z,39.59
2017-05-13T00:20:26.044Z,39.69
2017-05-13T00:21:26.361Z,39.69
2017-05-13T00:22:26.371Z,39.59
2017-05-13T00:23:26.377Z,39.78
2017-05-13T00:24:26.389Z,39.78
2017-05-13T00:25:26.441Z,39.59
2017-05-13T00:26:26.088Z,39.69
2017-05-13T00:27:26.409Z,40.26
2017-05-13T00:28:26.464Z,39.69
2017-05-13T00:29:26.421Z,39.69
2017-05-13T00:30:26.424Z,39.78
2017-05-13T00:31:26.433Z,39.78
2017-05-13T00:32:26.444Z,39.69
2017-05-13T00:33:26.450Z,39.69
2017-05-13T00:34:26.143Z,39.78
2017-05-13T00:35:26.466Z,39.59
2017-05-13T00:36:26.468Z,40.26
2017-05-13T00:37:26.477Z,39.78
2017-05-13T00:38:26.482Z,39.69
2017-05-13T00:39:26.492Z,39.69
2017-05-13T00:40:26.548Z,39.69
2017-05-13T00:41:26.505Z,39.69
2017-05-13T00:42:26.514Z,39.78
2017-05-13T00:43:26.570Z,39.78
2017-05-13T00:44:26.528Z,39.78
2017-05-13T00:45:26.585Z,39.59
2017-05-13T00:46:26.543Z,39.78
2017-05-13T00:47:26.546Z,39.78
2017-05-13T00:48:26.560Z,39.59
2017-05-13T00:49:26.609Z,39.78
2017-05-13T00:50:26.568Z,39.69
2017-05-13T00:51:26.577Z,39.97
2017-05-13T00:52:26.634Z,39.59
2017-05-13T00:53:26.640Z,39.97
2017-05-13T00:54:26.646Z,40.07
2017-05-13T00:55:26.657Z,39.69
2017-05-13T00:56:26.616Z,39.69
2017-05-13T00:57:26.615Z,39.59
2017-05-13T00:58:26.625Z,39.69
2017-05-13T00:59:26.630Z,39.78
2017-05-13T01:00:26.637Z,39.59
2017-05-13T01:01:26.649Z,39.76
2017-05-13T01:02:26.655Z,39.78
2017-05-13T01:03:26.662Z,39.69
2017-05-13T01:04:26.668Z,39.87
2017-05-13T01:05:26.677Z,39.87
2017-05-13T01:06:26.682Z,39.87
2017-05-13T01:07:26.430Z,39.97
2017-05-13T01:08:26.798Z,39.87
2017-05-13T01:09:26.705Z,39.97
2017-05-13T01:10:26.713Z,39.97
2017-05-13T01:11:26.718Z,39.59
2017-05-13T01:12:26.724Z,40.17
2017-05-13T01:13:26.732Z,39.95
2017-05-13T01:14:26.740Z,40.05
2017-05-13T01:15:26.800Z,40.07
2017-05-13T01:16:26.754Z,40.07
2017-05-13T01:17:26.765Z,39.97
2017-05-13T01:18:26.815Z,39.76
2017-05-13T01:19:26.462Z,39.87
2017-05-13T01:20:26.787Z,39.97
2017-05-13T01:21:26.788Z,39.87
2017-05-13T01:22:26.795Z,39.97
2017-05-13T01:23:26.804Z,39.86
2017-05-13T01:24:26.867Z,39.87
2017-05-13T01:25:26.822Z,39.95
2017-05-13T01:26:26.874Z,39.66
2017-05-13T01:27:26.832Z,39.57
2017-05-13T01:28:26.837Z,39.78
2017-05-13T01:29:26.848Z,39.87
2017-05-13T01:30:26.905Z,39.66
2017-05-13T01:31:27.209Z,39.95
2017-05-13T01:32:26.864Z,39.87
2017-05-13T01:33:26.872Z,39.97
2017-05-13T01:34:26.880Z,39.95
2017-05-13T01:35:26.887Z,39.87
2017-05-13T01:36:26.892Z,39.69
2017-05-13T01:37:26.897Z,39.87
2017-05-13T01:38:26.649Z,40.05
2017-05-13T01:39:26.967Z,39.87
2017-05-13T01:40:26.919Z,40.17
2017-05-13T01:41:26.929Z,39.69
2017-05-13T01:42:26.935Z,40.07
2017-05-13T01:43:26.992Z,39.87
2017-05-13T01:44:26.947Z,39.87
2017-05-13T01:45:26.958Z,39.87
2017-05-13T01:46:26.654Z,39.86
2017-05-13T01:47:26.974Z,40.17
2017-05-13T01:48:26.982Z,39.76
2017-05-13T01:49:26.984Z,40.07
2017-05-13T01:50:26.993Z,40.07
2017-05-13T01:51:26.998Z,40.05
2017-05-13T01:52:27.052Z,39.95
2017-05-13T01:53:27.014Z,40.15
2017-05-13T01:54:27.022Z,39.87
2017-05-13T01:55:27.027Z,40.07
2017-05-13T01:56:26.723Z,40.05
2017-05-13T01:57:27.045Z,40.05
2017-05-13T01:58:27.048Z,39.86
2017-05-13T01:59:27.102Z,39.95
2017-05-13T02:00:27.064Z,39.76
2017-05-13T02:01:27.070Z,39.86
2017-05-13T02:02:27.081Z,40.05
2017-05-13T02:03:27.081Z,39.86
2017-05-13T02:04:27.088Z,39.95
2017-05-13T02:05:27.097Z,40.05
2017-05-13T02:06:27.106Z,39.86
2017-05-13T02:07:27.108Z,39.86
2017-05-13T02:08:27.117Z,40.05
2017-05-13T02:09:26.812Z,39.95
2017-05-13T02:10:27.132Z,39.86
2017-05-13T02:11:26.827Z,40.05
2017-05-13T02:12:26.833Z,39.95
2017-05-13T02:13:27.154Z,39.95
2017-05-13T02:14:27.164Z,39.76
2017-05-13T02:15:27.216Z,40.05
2017-05-13T02:16:27.171Z,40.05
2017-05-13T02:17:26.870Z,40.05
2017-05-13T02:18:27.193Z,39.95
2017-05-13T02:19:27.198Z,39.86
2017-05-13T02:20:27.250Z,39.76
2017-05-13T02:21:27.211Z,40.15
2017-05-13T02:22:27.217Z,39.76
2017-05-13T02:23:27.220Z,40.05
2017-05-13T02:24:26.919Z,40.05
2017-05-13T02:25:26.927Z,40.05
2017-05-13T02:26:26.933Z,40.05
2017-05-13T02:27:26.937Z,40.05
2017-05-13T02:28:27.260Z,39.86
2017-05-13T02:29:27.265Z,39.95
2017-05-13T02:30:27.271Z,40.05
2017-05-13T02:31:26.966Z,39.86
2017-05-13T02:32:26.978Z,40.05
2017-05-13T02:33:27.295Z,39.86
2017-05-13T02:34:27.306Z,39.95
2017-05-13T02:35:27.307Z,40.05
2017-05-13T02:36:27.004Z,39.76
2017-05-13T02:37:27.318Z,39.86
2017-05-13T02:38:27.328Z,39.95
2017-05-13T02:39:27.335Z,39.95
2017-05-13T02:40:27.394Z,39.76
2017-05-13T02:41:27.349Z,39.76
2017-05-13T02:42:27.043Z,39.66
2017-05-13T02:43:27.361Z,40.05
2017-05-13T02:44:27.058Z,39.76
2017-05-13T02:45:27.065Z,39.95
2017-05-13T02:46:27.387Z,39.95
2017-05-13T02:47:27.391Z,39.95
2017-05-13T02:48:27.407Z,39.95
2017-05-13T02:49:27.403Z,39.86
2017-05-13T02:50:27.416Z,40.05
2017-05-13T02:51:27.417Z,40.05
2017-05-13T02:52:27.117Z,40.05
2017-05-13T02:53:27.432Z,40.05
2017-05-13T02:54:27.439Z,40.15
2017-05-13T02:55:27.534Z,39.86
2017-05-13T02:56:27.455Z,39.95
2017-05-13T02:57:27.466Z,40.05
2017-05-13T02:58:27.469Z,39.76
2017-05-13T02:59:27.518Z,39.76
2017-05-13T03:00:27.481Z,40.05
2017-05-13T03:01:27.488Z,39.86
2017-05-13T03:02:27.495Z,40.05
2017-05-13T03:03:27.514Z,40.05
2017-05-13T03:04:27.560Z,40.05
2017-05-13T03:05:27.515Z,39.86
2017-05-13T03:06:27.528Z,39.86
2017-05-13T03:07:27.579Z,39.57
2017-05-13T03:08:27.589Z,39.86
2017-05-13T03:09:27.547Z,39.86
2017-05-13T03:10:27.552Z,39.86
2017-05-13T03:11:27.556Z,40.15
2017-05-13T03:12:27.305Z,39.86
2017-05-13T03:13:27.306Z,39.86
2017-05-13T03:14:27.630Z,39.95
2017-05-13T03:15:27.588Z,39.66
2017-05-13T03:16:27.597Z,39.86
2017-05-13T03:17:27.601Z,39.86
2017-05-13T03:18:27.606Z,39.86
2017-05-13T03:19:27.612Z,39.66
2017-05-13T03:20:27.622Z,39.76
2017-05-13T03:21:27.679Z,39.66
2017-05-13T03:22:27.635Z,39.76
2017-05-13T03:23:27.689Z,39.66
2017-05-13T03:24:27.340Z,39.57
2017-05-13T03:25:27.661Z,39.66
2017-05-13T03:26:27.662Z,39.66
2017-05-13T03:27:27.361Z,40.15
2017-05-13T03:28:27.681Z,39.86
2017-05-13T03:29:27.686Z,39.57
2017-05-13T03:30:27.691Z,39.57
2017-05-13T03:31:27.699Z,39.66
2017-05-13T03:32:27.705Z,40.05
2017-05-13T03:33:27.714Z,39.57
2017-05-13T03:34:27.718Z,39.47
2017-05-13T03:35:27.777Z,40.05
2017-05-13T03:36:27.733Z,40.05
2017-05-13T03:37:27.739Z,39.95
2017-05-13T03:38:27.749Z,40.05
2017-05-13T03:39:27.751Z,40.05
2017-05-13T03:40:27.760Z,39.95
2017-05-13T03:41:27.816Z,39.66
2017-05-13T03:42:27.782Z,39.95
2017-05-13T03:43:27.787Z,39.66
2017-05-13T03:44:27.789Z,40.15
2017-05-13T03:45:27.794Z,39.95
2017-05-13T03:46:27.542Z,39.86
2017-05-13T03:47:27.811Z,39.95
2017-05-13T03:48:27.822Z,40.05
2017-05-13T03:49:27.561Z,40.05
2017-05-13T03:50:27.835Z,40.05
2017-05-13T03:51:27.847Z,39.86
2017-05-13T03:52:27.847Z,39.95
2017-05-13T03:53:27.852Z,39.86
2017-05-13T03:54:27.860Z,39.86
2017-05-13T03:55:27.868Z,39.95
2017-05-13T03:56:27.922Z,40.05
2017-05-13T03:57:27.882Z,40.05
2017-05-13T03:58:27.576Z,39.76
2017-05-13T03:59:27.894Z,39.95
2017-05-13T04:00:27.911Z,40.05
2017-05-13T04:01:27.909Z,40.24
2017-05-13T04:02:27.914Z,39.86
2017-05-13T04:03:27.921Z,39.95
2017-05-13T04:04:27.928Z,39.86
2017-05-13T04:05:27.936Z,39.66
2017-05-13T04:06:27.940Z,39.95
2017-05-13T04:07:27.948Z,39.76
2017-05-13T04:08:27.965Z,39.57
2017-05-13T04:09:28.018Z,39.66
2017-05-13T04:10:27.969Z,39.66
2017-05-13T04:11:27.977Z,39.76
2017-05-13T04:12:27.986Z,39.66
2017-05-13T04:13:28.050Z,39.57
2017-05-13T04:14:27.690Z,39.66
2017-05-13T04:15:28.007Z,39.66
2017-05-13T04:16:28.009Z,39.66
2017-05-13T04:17:28.024Z,39.76
2017-05-13T04:18:28.075Z,39.57
2017-05-13T04:19:28.035Z,39.76
2017-05-13T04:20:27.729Z,39.57
2017-05-13T04:21:28.045Z,39.76
2017-05-13T04:22:28.053Z,39.76
2017-05-13T04:23:28.108Z,39.66
2017-05-13T04:24:28.065Z,39.76
2017-05-13T04:25:27.761Z,39.66
2017-05-13T04:26:28.081Z,39.66
2017-05-13T04:27:28.091Z,39.66
2017-05-13T04:28:28.147Z,39.76
2017-05-13T04:29:28.104Z,39.76
2017-05-13T04:30:28.110Z,39.66
2017-05-13T04:31:28.115Z,40.05
2017-05-13T04:32:27.815Z,39.76
2017-05-13T04:33:28.135Z,39.76
2017-05-13T04:34:28.135Z,39.66
2017-05-13T04:35:28.143Z,39.86
2017-05-13T04:36:28.153Z,39.76
2017-05-13T04:37:28.158Z,39.76
2017-05-13T04:38:27.861Z,40.05
2017-05-13T04:39:27.857Z,39.76
2017-05-13T04:40:27.866Z,39.66
2017-05-13T04:41:27.875Z,39.57
2017-05-13T04:42:28.193Z,39.47
2017-05-13T04:43:28.203Z,39.47
2017-05-13T04:44:27.896Z,39.47
2017-05-13T04:45:28.215Z,39.37
2017-05-13T04:46:28.219Z,39.49
2017-05-13T04:47:28.227Z,39.47
2017-05-13T04:48:28.235Z,39.47
2017-05-13T04:49:27.991Z,39.39
2017-05-13T04:50:28.249Z,39.09
2017-05-13T04:51:28.255Z,38.99
2017-05-13T04:52:28.264Z,39.11
2017-05-13T04:53:27.961Z,38.81
2017-05-13T04:54:28.276Z,38.91
2017-05-13T04:55:28.283Z,39.29
2017-05-13T04:56:28.030Z,39.29
2017-05-13T04:57:28.297Z,38.62
2017-05-13T04:58:28.307Z,38.43
2017-05-13T04:59:28.313Z,38.45
2017-05-13T05:00:28.322Z,38.35
2017-05-13T05:01:28.326Z,38.54
2017-05-13T05:02:28.334Z,38.45
2017-05-13T05:03:28.344Z,38.54
2017-05-13T05:04:28.036Z,38.71
2017-05-13T05:05:28.358Z,38.71
2017-05-13T05:06:28.053Z,38.62
2017-05-13T05:07:28.372Z,38.81
2017-05-13T05:08:28.383Z,39.01
2017-05-13T05:09:28.390Z,39.29
2017-05-13T05:10:28.392Z,39.2
2017-05-13T05:11:28.430Z,39.11
2017-05-13T05:12:28.407Z,39.2
2017-05-13T05:13:28.158Z,39.2
2017-05-13T05:14:28.423Z,39.01
2017-05-13T05:15:28.427Z,39.01
2017-05-13T05:16:28.438Z,39.2
2017-05-13T05:17:28.183Z,39.01
2017-05-13T05:18:28.503Z,39.2
2017-05-13T05:19:28.457Z,39.2
2017-05-13T05:20:28.156Z,39.11
2017-05-13T05:21:28.471Z,39.01
2017-05-13T05:22:28.168Z,39.11
2017-05-13T05:23:28.178Z,39.11
2017-05-13T05:24:28.497Z,39.11
2017-05-13T05:25:28.504Z,39.2
2017-05-13T05:26:28.509Z,39.01
2017-05-13T05:27:28.517Z,39.2
2017-05-13T05:28:28.521Z,39.11
2017-05-13T05:29:28.532Z,39.11
2017-05-13T05:30:28.225Z,39.11
2017-05-13T05:31:28.543Z,39.39
2017-05-13T05:32:28.603Z,39.2
2017-05-13T05:33:28.298Z,39.29
2017-05-13T05:34:28.566Z,39.2
2017-05-13T05:35:28.575Z,39.2
2017-05-13T05:36:28.582Z,39.11
2017-05-13T05:37:28.587Z,38.62
2017-05-13T05:38:28.594Z,38.62
2017-05-13T05:39:28.603Z,38.71
2017-05-13T05:40:28.610Z,38.71
2017-05-13T05:41:28.616Z,38.62
2017-05-13T05:42:28.626Z,38.81
2017-05-13T05:43:28.728Z,38.62
2017-05-13T05:44:28.636Z,38.62
2017-05-13T05:45:28.644Z,38.71
2017-05-13T05:46:28.341Z,38.53
2017-05-13T05:47:28.659Z,38.71
2017-05-13T05:48:28.666Z,38.62
2017-05-13T05:49:28.363Z,38.43
2017-05-13T05:50:28.731Z,38.74
2017-05-13T05:51:28.692Z,38.71
2017-05-13T05:52:28.383Z,38.62
2017-05-13T05:53:28.440Z,38.43
2017-05-13T05:54:28.399Z,38.53
2017-05-13T05:55:28.408Z,38.43
2017-05-13T05:56:28.725Z,38.54
2017-05-13T05:57:28.734Z,38.43
2017-05-13T05:58:28.737Z,38.43
2017-05-13T05:59:28.747Z,38.35
2017-05-13T06:00:28.751Z,38.06
2017-05-13T06:01:28.760Z,37.77
2017-05-13T06:02:28.457Z,38.25
2017-05-13T06:03:28.771Z,38.06
2017-05-13T06:04:28.779Z,37.77
2017-05-13T06:05:28.789Z,37.67
2017-05-13T06:06:28.794Z,37.67
2017-05-13T06:07:28.800Z,37.67
2017-05-13T06:08:28.502Z,37.48
2017-05-13T06:09:28.817Z,37.29
2017-05-13T06:10:28.563Z,37.12
2017-05-13T06:11:28.833Z,36.53
2017-05-13T06:12:28.840Z,37.21
2017-05-13T06:13:28.848Z,37.12
2017-05-13T06:14:28.855Z,36.82
2017-05-13T06:15:28.862Z,33.36
2017-05-13T06:16:28.871Z,30.44
2017-05-13T06:17:28.928Z,30.11
2017-05-13T06:18:28.888Z,30.85
2017-05-13T06:19:28.893Z,29.12
2017-05-13T06:20:28.591Z,28.57
2017-05-13T06:21:28.910Z,27.7
2017-05-13T06:22:28.922Z,26.67
2017-05-13T06:23:28.927Z,26.09
2017-05-13T06:24:28.936Z,25.52
2017-05-13T06:25:28.635Z,24.85
2017-05-13T06:26:28.963Z,24.29
2017-05-13T06:27:28.964Z,24.19
2017-05-13T06:28:28.972Z,24.3
2017-05-13T06:29:28.986Z,23.82
2017-05-13T06:30:28.994Z,23.43
2017-05-13T06:31:29.004Z,23.14
2017-05-13T06:32:29.014Z,23.35
2017-05-13T06:33:29.020Z,23.34
2017-05-13T06:34:29.081Z,23.44
2017-05-13T06:35:29.075Z,23.63
2017-05-13T06:36:29.104Z,23.34
2017-05-13T06:37:29.063Z,22.96
2017-05-13T06:38:28.761Z,22.17
2017-05-13T06:39:29.082Z,22.28
2017-05-13T06:40:28.831Z,22.38
2017-05-13T06:41:28.795Z,22.38
2017-05-13T06:42:29.114Z,24.73
2017-05-13T06:43:29.121Z,26.9
2017-05-13T06:44:29.133Z,28.42
2017-05-13T06:45:29.143Z,30.11
2017-05-13T06:46:29.156Z,26.89
2017-05-13T06:47:29.161Z,23.97
2017-05-13T06:48:29.172Z,22.07
2017-05-13T06:49:29.489Z,22.38
2017-05-13T06:50:29.195Z,22
2017-05-13T06:51:29.204Z,22
2017-05-13T06:52:29.264Z,22
2017-05-13T06:53:29.222Z,21.71
2017-05-13T06:54:28.924Z,22
2017-05-13T06:55:29.245Z,22
2017-05-13T06:56:28.946Z,22.1
2017-05-13T06:57:29.275Z,22.38
2017-05-13T06:58:29.280Z,22.38
2017-05-13T06:59:29.291Z,21.99
2017-05-13T07:00:29.303Z,22.2
2017-05-13T07:01:29.000Z,21.81
2017-05-13T07:02:29.324Z,22.1
2017-05-13T07:03:29.336Z,22.2
2017-05-13T07:04:29.036Z,22
2017-05-13T07:05:29.360Z,21.81
2017-05-13T07:06:29.370Z,22
2017-05-13T07:07:29.070Z,21.61
2017-05-13T07:08:29.389Z,21.42
2017-05-13T07:09:29.402Z,21.03
2017-05-13T07:10:29.415Z,21.42
2017-05-13T07:11:29.422Z,21.42
2017-05-13T07:12:29.436Z,21.23
2017-05-13T07:13:29.449Z,21.33
2017-05-13T07:14:29.149Z,21.13
2017-05-13T07:15:29.471Z,21.23
2017-05-13T07:16:29.483Z,21.13
2017-05-13T07:17:29.495Z,21.03
2017-05-13T07:18:29.505Z,21.34
2017-05-13T07:19:29.205Z,20.75
2017-05-13T07:20:29.529Z,21.44
2017-05-13T07:21:29.541Z,21.34
2017-05-13T07:22:29.552Z,21.03
2017-05-13T07:23:29.563Z,20.94
2017-05-13T07:24:29.623Z,21.23
2017-05-13T07:25:29.587Z,21.04
2017-05-13T07:26:29.649Z,23.47
2017-05-13T07:27:29.668Z,27.22
2017-05-13T07:28:29.623Z,29.65
2017-05-13T07:29:29.632Z,31.44
2017-05-13T07:30:29.646Z,32.47
2017-05-13T07:31:29.655Z,33.04
2017-05-13T07:32:29.671Z,33.33
2017-05-13T07:33:29.674Z,33.62
2017-05-13T07:34:29.684Z,33.52
2017-05-13T07:35:29.383Z,33.33
2017-05-13T07:36:29.389Z,33.33
2017-05-13T07:37:29.713Z,33.33
2017-05-13T07:38:29.460Z,33.62
2017-05-13T07:39:29.727Z,33.8
2017-05-13T07:40:29.739Z,33.81
2017-05-13T07:41:29.746Z,33.23
2017-05-13T07:42:29.756Z,32.94
2017-05-13T07:43:29.816Z,33.14
2017-05-13T07:44:29.772Z,33.42
2017-05-13T07:45:29.787Z,33.72
2017-05-13T07:46:29.791Z,33.42
2017-05-13T07:47:29.798Z,33.6
2017-05-13T07:48:29.808Z,33.31
2017-05-13T07:49:29.814Z,33.62
2017-05-13T07:50:29.821Z,33.23
2017-05-13T07:51:29.832Z,32.67
2017-05-13T07:52:29.837Z,32.76
2017-05-13T07:53:29.543Z,33.15
2017-05-13T07:54:29.857Z,33.23
2017-05-13T07:55:29.867Z,33.14
2017-05-13T07:56:29.612Z,33.42
2017-05-13T07:57:29.877Z,32.65
2017-05-13T07:58:29.888Z,32.86
2017-05-13T07:59:29.899Z,33.23
2017-05-13T08:00:29.906Z,33.04
2017-05-13T08:01:29.963Z,33.33
2017-05-13T08:02:29.971Z,33.91
2017-05-13T08:03:29.615Z,33.42
2017-05-13T08:04:29.988Z,33.52
2017-05-13T08:05:29.948Z,33.42
2017-05-13T08:06:29.954Z,33.14
2017-05-13T08:07:29.959Z,33.52
2017-05-13T08:08:29.971Z,33.81
2017-05-13T08:09:29.980Z,33.89
2017-05-13T08:10:30.036Z,33.89
2017-05-13T08:11:29.993Z,33.99
2017-05-13T08:12:29.688Z,33.89
2017-05-13T08:13:30.010Z,33.99
2017-05-13T08:14:30.015Z,33.42
2017-05-13T08:15:30.024Z,33.04
2017-05-13T08:16:30.034Z,33.72
2017-05-13T08:17:30.051Z,34.01
2017-05-13T08:18:30.047Z,34.19
2017-05-13T08:19:30.055Z,34.19
2017-05-13T08:20:30.063Z,34.28
2017-05-13T08:21:29.760Z,33.89
2017-05-13T08:22:30.080Z,33.8
2017-05-13T08:23:29.824Z,33.7
2017-05-13T08:24:30.095Z,33.99
2017-05-13T08:25:30.102Z,33.89
2017-05-13T08:26:30.159Z,34.28
2017-05-13T08:27:29.805Z,34.67
2017-05-13T08:28:30.127Z,33.89
2017-05-13T08:29:30.131Z,34.28
2017-05-13T08:30:30.138Z,34.28
2017-05-13T08:31:30.150Z,34.28
2017-05-13T08:32:29.845Z,34.47
2017-05-13T08:33:30.168Z,34.45
2017-05-13T08:34:30.169Z,34.28
2017-05-13T08:35:30.178Z,34.57
2017-05-13T08:36:30.187Z,34.57
2017-05-13T08:37:29.935Z,34.57
2017-05-13T08:38:30.206Z,34.47
2017-05-13T08:39:30.216Z,34.38
2017-05-13T08:40:30.269Z,34.38
2017-05-13T08:41:29.967Z,34.38
2017-05-13T08:42:30.281Z,34.28
2017-05-13T08:43:30.241Z,34.47
2017-05-13T08:44:30.246Z,34.28
2017-05-13T08:45:30.255Z,34.47
2017-05-13T08:46:30.262Z,34.67
2017-05-13T08:47:30.274Z,34.57
2017-05-13T08:48:30.281Z,34.28
2017-05-13T08:49:30.285Z,34.47
2017-05-13T08:50:30.034Z,34.57
2017-05-13T08:51:30.350Z,34.57
2017-05-13T08:52:30.307Z,34.47
2017-05-13T08:53:30.005Z,34.67
2017-05-13T08:54:30.324Z,34.77
2017-05-13T08:55:30.330Z,34.84
2017-05-13T08:56:30.031Z,34.94
2017-05-13T08:57:30.346Z,34.67
2017-05-13T08:58:30.351Z,34.47
2017-05-13T08:59:30.051Z,34.28
2017-05-13T09:00:30.060Z,34.67
2017-05-13T09:01:30.378Z,34.38
2017-05-13T09:02:30.386Z,34.67
2017-05-13T09:03:30.397Z,34.19
2017-05-13T09:04:30.402Z,34.57
2017-05-13T09:05:30.407Z,34.09
2017-05-13T09:06:30.416Z,34.09
2017-05-13T09:07:30.114Z,34.28
2017-05-13T09:08:30.479Z,34.86
2017-05-13T09:09:30.442Z,35.05
2017-05-13T09:10:30.446Z,35.05
2017-05-13T09:11:30.459Z,34.67
2017-05-13T09:12:30.465Z,34.57
2017-05-13T09:13:30.470Z,34.57
2017-05-13T09:14:30.168Z,34.57
2017-05-13T09:15:30.488Z,34.38
2017-05-13T09:16:30.186Z,34.57
2017-05-13T09:17:30.500Z,34.57
2017-05-13T09:18:30.508Z,34.77
2017-05-13T09:19:30.514Z,34.65
2017-05-13T09:20:30.526Z,34.65
2017-05-13T09:21:30.532Z,34.67
2017-05-13T09:22:30.539Z,35.04
2017-05-13T09:23:30.547Z,35.04
2017-05-13T09:24:30.293Z,35.13
2017-05-13T09:25:30.611Z,34.75
2017-05-13T09:26:30.567Z,34.75
2017-05-13T09:27:30.582Z,34.75
2017-05-13T09:28:30.583Z,34.75
2017-05-13T09:29:30.282Z,34.75
2017-05-13T09:30:30.601Z,34.94
2017-05-13T09:31:30.296Z,34.94
2017-05-13T09:32:30.308Z,34.94
2017-05-13T09:33:30.622Z,34.94
2017-05-13T09:34:30.629Z,35.05
2017-05-13T09:35:30.639Z,35.04
2017-05-13T09:36:30.645Z,35.04
2017-05-13T09:37:30.655Z,34.65
2017-05-13T09:38:30.659Z,34.19
2017-05-13T09:39:30.673Z,34.67
2017-05-13T09:40:30.367Z,34.28
2017-05-13T09:41:30.688Z,34.96
2017-05-13T09:42:30.380Z,34.94
2017-05-13T09:43:30.702Z,34.84
2017-05-13T09:44:30.401Z,34.84
2017-05-13T09:45:30.715Z,34.65
2017-05-13T09:46:30.724Z,34.94
2017-05-13T09:47:30.733Z,35.05
2017-05-13T09:48:30.740Z,34.77
2017-05-13T09:49:30.744Z,35.05
2017-05-13T09:50:30.754Z,34.94
2017-05-13T09:51:30.761Z,34.75
2017-05-13T09:52:30.780Z,34.94
2017-05-13T09:53:30.787Z,35.23
2017-05-13T09:54:30.786Z,35.23
2017-05-13T09:55:30.793Z,35.42
2017-05-13T09:56:30.488Z,35.23
2017-05-13T09:57:30.808Z,35.13
2017-05-13T09:58:30.817Z,35.13
2017-05-13T09:59:30.562Z,35.23
2017-05-13T10:00:30.877Z,35.23
2017-05-13T10:01:30.526Z,35.23
2017-05-13T10:02:30.533Z,35.23
2017-05-13T10:03:30.901Z,35.13
2017-05-13T10:04:30.861Z,34.94
2017-05-13T10:05:30.866Z,35.13
2017-05-13T10:06:30.877Z,35.13
2017-05-13T10:07:30.937Z,35.33
2017-05-13T10:08:30.892Z,35.13
2017-05-13T10:09:30.901Z,34.94
2017-05-13T10:10:30.956Z,35.33
2017-05-13T10:11:30.913Z,35.13
2017-05-13T10:12:30.613Z,35.23
2017-05-13T10:13:30.930Z,35.23
2017-05-13T10:14:30.629Z,34.84
2017-05-13T10:15:30.943Z,34.84
2017-05-13T10:16:30.952Z,34.75
2017-05-13T10:17:31.059Z,35.13
2017-05-13T10:18:31.029Z,35.13
2017-05-13T10:19:30.976Z,35.13
2017-05-13T10:20:30.981Z,35.13
2017-05-13T10:21:30.682Z,35.23
2017-05-13T10:22:30.998Z,35.23
2017-05-13T10:23:31.055Z,34.94
2017-05-13T10:24:31.011Z,35.23
2017-05-13T10:25:31.040Z,35.23
2017-05-13T10:26:31.029Z,35.42
2017-05-13T10:27:31.139Z,35.62
2017-05-13T10:28:31.045Z,35.41
2017-05-13T10:29:31.053Z,35.23
2017-05-13T10:30:30.751Z,35.42
2017-05-13T10:31:31.066Z,35.13
2017-05-13T10:32:30.769Z,35.13
2017-05-13T10:33:31.085Z,35.13
2017-05-13T10:34:31.090Z,34.94
2017-05-13T10:35:31.099Z,35.23
2017-05-13T10:36:31.106Z,35.04
2017-05-13T10:37:31.112Z,35.04
2017-05-13T10:38:31.153Z,35.04
2017-05-13T10:39:31.127Z,35.33
2017-05-13T10:40:31.135Z,35.52
2017-05-13T10:41:30.835Z,35.6
2017-05-13T10:42:31.156Z,35.42
2017-05-13T10:43:31.159Z,35.62
2017-05-13T10:44:31.168Z,35.5
2017-05-13T10:45:31.176Z,35.04
2017-05-13T10:46:31.187Z,35.52
2017-05-13T10:47:31.192Z,35.52
2017-05-13T10:48:31.202Z,35.62
2017-05-13T10:49:31.206Z,35.6
2017-05-13T10:50:31.214Z,35.6
2017-05-13T10:51:30.914Z,35.5
2017-05-13T10:52:31.227Z,35.12
2017-05-13T10:53:31.235Z,35.13
2017-05-13T10:54:31.243Z,35.23
2017-05-13T10:55:31.250Z,35.42
2017-05-13T10:56:31.312Z,35.23
2017-05-13T10:57:31.266Z,35.42
2017-05-13T10:58:31.272Z,35.52
2017-05-13T10:59:31.281Z,35.42
2017-05-13T11:00:31.287Z,35.42
2017-05-13T11:01:31.298Z,35.23
2017-05-13T11:02:31.304Z,35.33
2017-05-13T11:03:31.311Z,35.41
2017-05-13T11:04:31.354Z,35.52
2017-05-13T11:05:31.016Z,35.52
2017-05-13T11:06:31.337Z,35.52
2017-05-13T11:07:31.366Z,35.23
2017-05-13T11:08:31.088Z,35.04
2017-05-13T11:09:31.359Z,35.23
2017-05-13T11:10:31.415Z,35.13
2017-05-13T11:11:31.373Z,35.23
2017-05-13T11:12:31.124Z,35.23
2017-05-13T11:13:31.390Z,35.42
2017-05-13T11:14:31.398Z,35.5
2017-05-13T11:15:31.457Z,35.5
2017-05-13T11:16:31.714Z,35.41
2017-05-13T11:17:31.420Z,35.62
2017-05-13T11:18:31.427Z,35.52
2017-05-13T11:19:31.437Z,35.62
2017-05-13T11:20:31.131Z,35.62
2017-05-13T11:21:31.449Z,35.5
2017-05-13T11:22:31.147Z,35.52
2017-05-13T11:23:31.153Z,35.6
2017-05-13T11:24:31.473Z,35.42
2017-05-13T11:25:31.532Z,35.42
2017-05-13T11:26:31.490Z,35.62
2017-05-13T11:27:31.496Z,35.6
2017-05-13T11:28:31.503Z,35.6
2017-05-13T11:29:31.511Z,35.99
2017-05-13T11:30:31.208Z,35.7
2017-05-13T11:31:31.536Z,35.72
2017-05-13T11:32:31.533Z,35.62
2017-05-13T11:33:31.541Z,35.5
2017-05-13T11:34:31.552Z,35.62
2017-05-13T11:35:31.557Z,35.6
2017-05-13T11:36:31.566Z,35.5
2017-05-13T11:37:31.576Z,35.8
2017-05-13T11:38:31.579Z,35.5
2017-05-13T11:39:31.602Z,36.38
2017-05-13T11:40:31.596Z,35.5
2017-05-13T11:41:31.604Z,35.8
2017-05-13T11:42:31.661Z,35.7
2017-05-13T11:43:31.671Z,36.38
2017-05-13T11:44:31.628Z,36.28
2017-05-13T11:45:31.330Z,36.18
2017-05-13T11:46:31.646Z,36.28
2017-05-13T11:47:31.342Z,35.8
2017-05-13T11:48:31.658Z,35.6
2017-05-13T11:49:31.665Z,35.52
2017-05-13T11:50:31.672Z,35.42
2017-05-13T11:51:31.707Z,35.8
2017-05-13T11:52:31.742Z,35.99
2017-05-13T11:53:31.745Z,36.38
2017-05-13T11:54:31.705Z,36.38
2017-05-13T11:55:31.401Z,35.7
2017-05-13T11:56:31.717Z,36.47
2017-05-13T11:57:31.727Z,35.8
2017-05-13T11:58:31.733Z,35.7
2017-05-13T11:59:31.744Z,36.18
2017-05-13T12:00:31.750Z,36.28
2017-05-13T12:01:31.447Z,35.89
2017-05-13T12:02:31.764Z,36.18
2017-05-13T12:03:31.772Z,36.08
2017-05-13T12:04:31.779Z,36.28
2017-05-13T12:05:31.792Z,35.99
2017-05-13T12:06:31.534Z,36.28
2017-05-13T12:07:31.803Z,35.99
2017-05-13T12:08:31.547Z,35.99
2017-05-13T12:09:31.817Z,35.89
2017-05-13T12:10:31.825Z,35.99
2017-05-13T12:11:31.530Z,35.89
2017-05-13T12:12:31.530Z,36.08
2017-05-13T12:13:31.536Z,36.28
2017-05-13T12:14:31.856Z,36.28
2017-05-13T12:15:31.863Z,35.89
2017-05-13T12:16:31.879Z,36.08
2017-05-13T12:17:31.879Z,35.6
2017-05-13T12:18:31.886Z,36.18
2017-05-13T12:19:31.893Z,35.7
2017-05-13T12:20:31.904Z,35.8
2017-05-13T12:21:31.909Z,36.38
2017-05-13T12:22:31.917Z,36.18
2017-05-13T12:23:31.972Z,35.7
2017-05-13T12:24:31.667Z,35.7
2017-05-13T12:25:31.987Z,35.6
2017-05-13T12:26:31.949Z,35.8
2017-05-13T12:27:31.955Z,35.7
2017-05-13T12:28:32.015Z,35.7
2017-05-13T12:29:31.970Z,36.18
2017-05-13T12:30:31.978Z,36.18
2017-05-13T12:31:31.984Z,35.8
2017-05-13T12:32:31.992Z,35.89
2017-05-13T12:33:31.752Z,36.47
2017-05-13T12:34:32.007Z,36.47
2017-05-13T12:35:32.014Z,36.18
2017-05-13T12:36:32.025Z,36.08
2017-05-13T12:37:32.034Z,36.08
2017-05-13T12:38:32.038Z,35.99
2017-05-13T12:39:32.045Z,36.47
2017-05-13T12:40:31.745Z,36.47
2017-05-13T12:41:32.070Z,36.57
2017-05-13T12:42:32.116Z,36.47
2017-05-13T12:43:32.080Z,36.38
2017-05-13T12:44:31.774Z,35.99
2017-05-13T12:45:31.782Z,35.7
2017-05-13T12:46:32.106Z,35.8
2017-05-13T12:47:32.109Z,36.38
2017-05-13T12:48:32.115Z,36.28
2017-05-13T12:49:32.124Z,36.57
2017-05-13T12:50:32.183Z,36.47
2017-05-13T12:51:32.188Z,36.38
2017-05-13T12:52:31.837Z,36.57
2017-05-13T12:53:32.157Z,36.38
2017-05-13T12:54:32.162Z,36.47
2017-05-13T12:55:32.172Z,36.66